Terminal Aerodrome Forecast
Issued by NWS Wakefield, VA

Home | Current Version | Previous Version | Text Only | Print | Product List | Glossary On
Versions: 1 2 3 4 5 6 7 8 9 10 11 12 13 14 15 16 17 18
000
FTUS41 KAKQ 251100 RRA
TAFRIC
TAF
KRIC 251141Z 2512/2612 26007KT P6SM SCT250
     FM251600 22008KT P6SM BKN250
     FM252300 18003KT P6SM BKN100 OVC250
     FM261000 14005KT P6SM OVC060=

USA.gov is the U.S. government's official web portal to all federal, state and local government web resources and services.